createdAt,value
2019-04-27T00:00:16.857Z,12.20
2019-04-27T00:03:09.308Z,12.17
2019-04-27T00:06:05.398Z,12.27
2019-04-27T00:08:39.169Z,12.27
2019-04-27T00:11:13.534Z,13.33
2019-04-27T00:13:46.714Z,12.60
2019-04-27T00:16:50.913Z,12.60
2019-04-27T00:19:36.180Z,12.87
2019-04-27T00:22:29.728Z,12.63
2019-04-27T00:25:00.336Z,14.07
2019-04-27T00:27:30.677Z,13.20
2019-04-27T00:30:01.252Z,12.80
2019-04-27T00:32:33.228Z,13.23
2019-04-27T00:35:09.309Z,13.23
2019-04-27T00:37:50.465Z,12.83
2019-04-27T00:40:33.849Z,12.60
2019-04-27T00:43:03.777Z,13.37
2019-04-27T00:45:34.299Z,13.30
2019-04-27T00:48:07.899Z,12.60
2019-04-27T00:50:38.434Z,13.97
2019-04-27T00:53:08.349Z,12.97
2019-04-27T00:55:47.229Z,13.30
2019-04-27T00:58:26.165Z,12.90
2019-04-27T01:01:09.624Z,13.93
2019-04-27T01:03:44.477Z,13.37
2019-04-27T01:06:15.042Z,13.00
2019-04-27T01:08:47.729Z,13.90
2019-04-27T01:11:18.182Z,12.80
2019-04-27T01:13:48.013Z,13.43
2019-04-27T01:16:21.996Z,13.90
2019-04-27T01:18:50.719Z,12.60
2019-04-27T01:21:22.265Z,12.77
2019-04-27T01:23:52.197Z,13.37
2019-04-27T01:26:39.098Z,13.50
2019-04-27T01:29:12.537Z,12.67
2019-04-27T01:31:42.997Z,13.20
2019-04-27T01:34:12.945Z,13.60
2019-04-27T01:36:43.281Z,13.03
2019-04-27T01:39:14.938Z,13.40
2019-04-27T01:41:45.328Z,13.40
2019-04-27T01:44:15.177Z,13.83
2019-04-27T01:46:45.492Z,13.73
2019-04-27T01:49:15.877Z,13.70
2019-04-27T01:51:47.089Z,13.97
2019-04-27T01:54:19.447Z,13.27
2019-04-27T01:56:49.918Z,13.10
2019-04-27T01:59:21.713Z,13.40
2019-04-27T02:02:23.811Z,14.47
2019-04-27T02:05:11.787Z,12.63
2019-04-27T02:07:44.732Z,13.47
2019-04-27T02:10:19.005Z,13.93
2019-04-27T02:12:48.947Z,13.53
2019-04-27T02:15:19.385Z,13.37
2019-04-27T02:17:51.028Z,13.27
2019-04-27T02:20:25.418Z,13.97
2019-04-27T02:22:55.765Z,13.47
2019-04-27T02:25:26.205Z,13.40
2019-04-27T02:28:01.781Z,13.67
2019-04-27T02:30:49.868Z,14.40
2019-04-27T02:33:35.023Z,13.30
2019-04-27T02:36:06.341Z,13.57
2019-04-27T02:38:36.249Z,14.00
2019-04-27T02:41:09.802Z,14.00
2019-04-27T02:44:01.784Z,13.97
2019-04-27T02:46:32.958Z,13.97
2019-04-27T02:49:07.055Z,14.10
2019-04-27T02:51:46.057Z,14.40
2019-04-27T02:54:16.507Z,14.80
2019-04-27T02:56:50.099Z,14.10
2019-04-27T02:59:20.342Z,15.10
2019-04-27T03:02:00.846Z,13.70
2019-04-27T03:04:31.414Z,13.87
2019-04-27T03:07:04.278Z,14.67
2019-04-27T03:09:34.410Z,13.90
2019-04-27T03:12:06.838Z,13.33
2019-04-27T03:14:55.958Z,13.57
2019-04-27T03:17:41.315Z,14.87
2019-04-27T03:20:30.020Z,14.83
2019-04-27T03:23:06.046Z,13.77
2019-04-27T03:26:05.590Z,14.77
2019-04-27T03:28:35.930Z,13.63
2019-04-27T03:31:07.435Z,13.43
2019-04-27T03:33:42.923Z,14.23
2019-04-27T03:36:12.788Z,14.30
2019-04-27T03:38:44.849Z,13.77
2019-04-27T03:41:15.872Z,14.13
2019-04-27T03:43:46.301Z,13.80
2019-04-27T03:46:16.218Z,14.17
2019-04-27T03:48:46.637Z,14.90
2019-04-27T03:51:35.675Z,12.83
2019-04-27T03:54:22.084Z,13.20
2019-04-27T03:57:15.657Z,13.93
2019-04-27T04:00:02.880Z,13.87
2019-04-27T04:02:33.446Z,13.20
2019-04-27T04:05:03.926Z,13.87
2019-04-27T04:07:34.333Z,13.57
2019-04-27T04:10:06.751Z,13.43
2019-04-27T04:12:56.673Z,13.90
2019-04-27T04:15:45.357Z,12.70
2019-04-27T04:18:16.797Z,13.20
2019-04-27T04:20:47.687Z,14.20
2019-04-27T04:23:20.363Z,13.97
2019-04-27T04:25:50.138Z,14.07
2019-04-27T04:28:21.108Z,13.00
2019-04-27T04:30:51.543Z,13.23
2019-04-27T04:33:22.105Z,12.50
2019-04-27T04:35:54.280Z,13.60
2019-04-27T04:38:30.204Z,13.53
2019-04-27T04:41:04.345Z,13.33
2019-04-27T04:43:50.285Z,14.40
2019-04-27T04:46:39.918Z,15.10
2019-04-27T04:49:10.773Z,13.47
2019-04-27T04:51:40.709Z,13.10
2019-04-27T04:54:10.635Z,13.73
2019-04-27T04:56:49.448Z,14.07
2019-04-27T04:59:20.949Z,13.53
2019-04-27T05:01:52.800Z,13.20
2019-04-27T05:04:23.189Z,12.70
2019-04-27T05:06:53.749Z,14.53
2019-04-27T05:09:24.110Z,14.13
2019-04-27T05:11:55.149Z,12.43
2019-04-27T05:14:25.640Z,13.50
2019-04-27T05:16:56.181Z,13.60
2019-04-27T05:19:28.793Z,13.57
2019-04-27T05:21:59.301Z,12.23
2019-04-27T05:24:29.404Z,13.33
2019-04-27T05:27:12.157Z,13.40
2019-04-27T05:29:45.091Z,12.83
2019-04-27T05:32:15.434Z,12.37
2019-04-27T05:34:45.345Z,13.10
2019-04-27T05:37:15.465Z,12.30
2019-04-27T05:39:45.782Z,12.87
2019-04-27T05:42:18.967Z,12.73
2019-04-27T05:45:15.365Z,13.63
2019-04-27T05:47:58.966Z,12.33
2019-04-27T05:50:38.848Z,12.57
2019-04-27T05:53:02.365Z,11.80
2019-04-27T05:55:32.861Z,12.50
2019-04-27T05:58:04.732Z,12.57
2019-04-27T06:00:35.642Z,12.53
2019-04-27T06:03:05.597Z,12.73
2019-04-27T06:05:35.437Z,11.97
2019-04-27T06:08:08.708Z,11.70
2019-04-27T06:10:39.806Z,12.63
2019-04-27T06:13:10.869Z,12.10
2019-04-27T06:15:40.820Z,11.90
2019-04-27T06:18:13.280Z,10.70
2019-04-27T06:20:53.316Z,11.93
2019-04-27T06:23:18.647Z,12.10
2019-04-27T06:25:51.321Z,11.77
2019-04-27T06:28:25.418Z,12.27
2019-04-27T06:30:55.894Z,11.60
2019-04-27T06:33:32.492Z,12.03
2019-04-27T06:36:01.762Z,11.33
2019-04-27T06:38:31.081Z,11.60
2019-04-27T06:41:03.641Z,11.87
2019-04-27T06:43:34.069Z,11.63
2019-04-27T06:46:04.557Z,11.60
2019-04-27T06:48:35.069Z,10.87
2019-04-27T06:51:06.083Z,11.03
2019-04-27T06:53:36.664Z,10.57
2019-04-27T06:56:11.476Z,10.40
2019-04-27T06:58:41.973Z,10.93
2019-04-27T07:01:13.851Z,10.60
2019-04-27T07:03:44.955Z,11.20
2019-04-27T07:06:18.672Z,10.70
2019-04-27T07:08:49.894Z,11.10
2019-04-27T07:11:19.977Z,10.93
2019-04-27T07:13:50.353Z,10.50
2019-04-27T07:16:20.729Z,10.83
2019-04-27T07:18:52.158Z,10.73
2019-04-27T07:21:24.828Z,10.73
2019-04-27T07:24:00.057Z,10.53
2019-04-27T07:26:32.565Z,9.70
2019-04-27T07:29:02.405Z,10.60
2019-04-27T07:31:32.626Z,10.70
2019-04-27T07:34:03.519Z,11.30
2019-04-27T07:36:33.893Z,11.27
2019-04-27T07:39:04.949Z,9.53
2019-04-27T07:41:35.290Z,9.60
2019-04-27T07:44:20.541Z,10.53
2019-04-27T07:47:09.741Z,10.00
2019-04-27T07:49:49.877Z,10.27
2019-04-27T07:52:20.664Z,10.00
2019-04-27T07:54:53.594Z,9.60
2019-04-27T07:57:24.053Z,10.67
2019-04-27T07:59:54.485Z,10.03
2019-04-27T08:02:25.260Z,10.40
2019-04-27T08:04:56.820Z,10.63
2019-04-27T08:07:29.139Z,10.30
2019-04-27T08:10:01.933Z,10.13
2019-04-27T08:12:33.880Z,10.73
2019-04-27T08:15:06.015Z,10.13
2019-04-27T08:17:36.497Z,9.50
2019-04-27T08:20:06.368Z,10.00
2019-04-27T08:22:38.876Z,9.73
2019-04-27T08:25:09.905Z,9.70
2019-04-27T08:28:04.829Z,10.47
2019-04-27T08:30:50.989Z,9.10
2019-04-27T08:33:21.190Z,10.63
2019-04-27T08:35:50.987Z,9.17
2019-04-27T08:38:21.489Z,10.10
2019-04-27T08:40:53.552Z,9.10
2019-04-27T08:43:23.897Z,9.57
2019-04-27T08:45:55.841Z,8.87
2019-04-27T08:48:36.354Z,8.03
2019-04-27T08:50:59.627Z,8.90
2019-04-27T08:53:29.896Z,9.00
2019-04-27T08:56:00.881Z,8.27
2019-04-27T08:58:34.906Z,8.83
2019-04-27T09:01:10.026Z,9.15
2019-04-27T09:03:39.553Z,9.00
2019-04-27T09:06:11.585Z,8.58
2019-04-27T09:08:53.871Z,8.00
2019-04-27T09:11:29.107Z,8.57
2019-04-27T09:14:10.181Z,9.50
2019-04-27T09:16:59.630Z,8.47
2019-04-27T09:19:29.252Z,8.70
2019-04-27T09:22:12.809Z,8.37
2019-04-27T09:24:35.372Z,9.77
2019-04-27T09:27:09.634Z,9.27
2019-04-27T09:29:40.285Z,9.13
2019-04-27T09:32:11.164Z,9.00
2019-04-27T09:34:41.405Z,8.75
2019-04-27T09:37:13.209Z,8.93
2019-04-27T09:39:45.882Z,8.80
2019-04-27T09:42:16.774Z,9.13
2019-04-27T09:44:49.114Z,9.40
2019-04-27T09:47:20.789Z,8.60
2019-04-27T09:49:51.166Z,8.97
2019-04-27T09:52:25.909Z,9.40
2019-04-27T09:54:55.974Z,9.00
2019-04-27T09:57:27.973Z,8.73
2019-04-27T09:59:58.897Z,9.07
2019-04-27T10:02:30.906Z,9.05
2019-04-27T10:05:00.793Z,9.18
2019-04-27T10:07:33.438Z,9.03
2019-04-27T10:10:03.890Z,9.13
2019-04-27T10:12:35.121Z,8.97
2019-04-27T10:15:08.309Z,9.30
2019-04-27T10:17:38.740Z,9.00
2019-04-27T10:20:09.201Z,9.08
2019-04-27T10:22:43.643Z,8.98
2019-04-27T10:25:25.939Z,10.60
2019-04-27T10:27:59.629Z,9.40
2019-04-27T10:30:31.833Z,8.93
2019-04-27T10:33:08.141Z,8.27
2019-04-27T10:35:39.377Z,9.45
2019-04-27T10:38:11.294Z,8.60
2019-04-27T10:40:42.777Z,8.58
2019-04-27T10:43:16.881Z,8.75
2019-04-27T10:45:47.282Z,8.70
2019-04-27T10:48:20.049Z,8.28
2019-04-27T10:50:50.965Z,9.28
2019-04-27T10:53:21.977Z,9.65
2019-04-27T10:55:52.409Z,9.53
2019-04-27T10:58:22.501Z,9.40
2019-04-27T11:00:56.513Z,9.13
2019-04-27T11:03:46.236Z,9.25
2019-04-27T11:06:38.290Z,8.88
2019-04-27T11:09:09.713Z,8.65
2019-04-27T11:11:40.321Z,8.48
2019-04-27T11:14:11.317Z,9.30
2019-04-27T11:16:41.261Z,8.95
2019-04-27T11:19:12.221Z,8.05
2019-04-27T11:21:44.881Z,8.88
2019-04-27T11:24:14.805Z,8.35
2019-04-27T11:26:46.549Z,8.40
2019-04-27T11:29:17.586Z,8.93
2019-04-27T11:31:48.853Z,9.38
2019-04-27T11:34:24.553Z,8.13
2019-04-27T11:37:01.331Z,8.40
2019-04-27T11:39:32.345Z,8.55
2019-04-27T11:42:03.767Z,7.73
2019-04-27T11:44:35.937Z,7.53
2019-04-27T11:47:06.469Z,8.30
2019-04-27T11:49:36.397Z,7.70
2019-04-27T11:52:06.837Z,8.10
2019-04-27T11:54:37.248Z,8.93
2019-04-27T11:57:07.664Z,7.80
2019-04-27T11:59:44.448Z,8.33
2019-04-27T12:02:17.537Z,8.53
2019-04-27T12:04:47.475Z,7.40
2019-04-27T12:07:18.585Z,7.08
2019-04-27T12:09:53.334Z,7.50
2019-04-27T12:12:26.114Z,7.62
2019-04-27T12:14:59.173Z,7.50
2019-04-27T12:17:29.261Z,7.58
2019-04-27T12:19:59.877Z,7.95
2019-04-27T12:22:32.249Z,8.05
2019-04-27T12:25:02.629Z,7.90
2019-04-27T12:27:51.649Z,8.23
2019-04-27T12:30:26.438Z,7.42
2019-04-27T12:32:57.373Z,7.55
2019-04-27T12:35:27.217Z,7.85
2019-04-27T12:38:00.882Z,8.10
2019-04-27T12:40:31.217Z,8.00
2019-04-27T12:43:01.068Z,7.87
2019-04-27T12:45:31.541Z,8.35
2019-04-27T12:48:01.334Z,7.92
2019-04-27T12:50:31.342Z,7.03
2019-04-27T12:53:03.717Z,8.80
2019-04-27T12:55:48.825Z,8.80
2019-04-27T12:58:30.074Z,7.75
2019-04-27T13:01:01.994Z,7.72
2019-04-27T13:03:32.495Z,7.75
2019-04-27T13:06:02.378Z,7.92
2019-04-27T13:08:32.917Z,7.65
2019-04-27T13:11:05.991Z,7.72
2019-04-27T13:13:36.844Z,7.35
2019-04-27T13:16:07.293Z,7.57
2019-04-27T13:18:38.753Z,7.90
2019-04-27T13:21:09.089Z,7.60
2019-04-27T13:23:40.189Z,7.40
2019-04-27T13:26:10.009Z,8.65
2019-04-27T13:28:40.337Z,7.53
2019-04-27T13:31:10.873Z,7.45
2019-04-27T13:33:42.212Z,7.33
2019-04-27T13:36:15.021Z,7.15
2019-04-27T13:38:46.577Z,7.47
2019-04-27T13:41:27.870Z,7.70
2019-04-27T13:43:48.358Z,8.18
2019-04-27T13:46:49.271Z,7.65
2019-04-27T13:49:26.758Z,6.93
2019-04-27T13:52:10.297Z,7.33
2019-04-27T13:54:40.689Z,7.80
2019-04-27T13:57:11.138Z,6.90
2019-04-27T13:59:41.886Z,7.35
2019-04-27T14:02:13.248Z,7.70
2019-04-27T14:04:44.989Z,7.40
2019-04-27T14:07:14.909Z,7.30
2019-04-27T14:09:50.501Z,7.55
2019-04-27T14:12:22.681Z,7.80
2019-04-27T14:14:53.178Z,7.10
2019-04-27T14:17:22.995Z,7.80
2019-04-27T14:19:53.989Z,6.65
2019-04-27T14:22:23.925Z,7.08
2019-04-27T14:24:55.582Z,7.10
2019-04-27T14:27:29.045Z,7.60
2019-04-27T14:29:59.512Z,7.03
2019-04-27T14:32:30.038Z,7.55
2019-04-27T14:34:59.997Z,7.10
2019-04-27T14:37:31.931Z,7.27
2019-04-27T14:40:01.764Z,6.80
2019-04-27T14:42:32.192Z,7.15
2019-04-27T14:45:03.275Z,7.87
2019-04-27T14:47:34.212Z,7.40
2019-04-27T14:50:06.073Z,7.00
2019-04-27T14:52:36.527Z,7.10
2019-04-27T14:55:08.609Z,7.58
2019-04-27T14:57:39.490Z,7.33
2019-04-27T15:00:11.045Z,7.22
2019-04-27T15:02:41.495Z,7.12
2019-04-27T15:05:12.057Z,6.85
2019-04-27T15:07:44.443Z,6.75
2019-04-27T15:10:16.226Z,7.12
2019-04-27T15:12:48.730Z,6.50
2019-04-27T15:15:21.450Z,6.83
2019-04-27T15:17:51.418Z,7.28
2019-04-27T15:20:32.486Z,6.63
2019-04-27T15:23:02.241Z,6.20
2019-04-27T15:25:42.358Z,6.85
2019-04-27T15:28:32.139Z,7.12
2019-04-27T15:31:26.227Z,6.80
2019-04-27T15:34:00.984Z,7.05
2019-04-27T15:36:58.431Z,7.20
2019-04-27T15:39:50.628Z,7.00
2019-04-27T15:42:28.368Z,6.83
2019-04-27T15:44:59.326Z,7.00
2019-04-27T15:47:33.679Z,7.22
2019-04-27T15:50:04.405Z,7.03
2019-04-27T15:52:35.544Z,7.00
2019-04-27T15:55:11.039Z,7.75
2019-04-27T15:57:42.586Z,8.35
2019-04-27T16:00:18.605Z,8.20
2019-04-27T16:02:49.357Z,8.50
2019-04-27T16:05:28.011Z,8.25
2019-04-27T16:07:59.201Z,7.55
2019-04-27T16:10:28.433Z,8.10
2019-04-27T16:13:06.658Z,7.70
2019-04-27T16:15:30.645Z,7.58
2019-04-27T16:18:01.591Z,8.20
2019-04-27T16:20:34.019Z,7.78
2019-04-27T16:23:05.238Z,8.00
2019-04-27T16:25:47.416Z,8.30
2019-04-27T16:28:13.372Z,8.88
2019-04-27T16:30:45.567Z,8.45
2019-04-27T16:33:15.448Z,8.35
2019-04-27T16:35:46.142Z,8.35
2019-04-27T16:38:43.668Z,7.80
2019-04-27T16:41:14.781Z,8.38
2019-04-27T16:43:45.692Z,12.15
2019-04-27T16:46:16.163Z,8.20
2019-04-27T16:48:47.185Z,8.48
2019-04-27T16:51:18.340Z,8.55
2019-04-27T16:53:49.686Z,9.63
2019-04-27T16:56:20.816Z,8.35
2019-04-27T16:58:56.597Z,8.60
2019-04-27T17:01:30.141Z,9.15
2019-04-27T17:04:01.317Z,10.53
2019-04-27T17:06:33.338Z,9.08
2019-04-27T17:09:06.869Z,9.23
2019-04-27T17:11:38.286Z,10.65
2019-04-27T17:14:16.464Z,9.38
2019-04-27T17:17:12.202Z,9.70
2019-04-27T17:19:51.240Z,8.20
2019-04-27T17:22:20.229Z,9.45
2019-04-27T17:24:50.809Z,8.73
2019-04-27T17:27:31.234Z,9.15
2019-04-27T17:30:03.126Z,8.48
2019-04-27T17:32:40.691Z,8.53
2019-04-27T17:35:14.768Z,8.90
2019-04-27T17:37:44.607Z,8.20
2019-04-27T17:40:15.587Z,8.85
2019-04-27T17:42:48.170Z,9.18
2019-04-27T17:45:21.403Z,8.13
2019-04-27T17:47:51.548Z,8.38
2019-04-27T17:50:24.998Z,8.63
2019-04-27T17:52:55.026Z,9.25
2019-04-27T17:55:25.854Z,8.63
2019-04-27T17:58:05.263Z,8.60
2019-04-27T18:00:41.018Z,8.75
2019-04-27T18:03:05.317Z,9.43
2019-04-27T18:05:35.751Z,9.53
2019-04-27T18:08:08.354Z,8.90
2019-04-27T18:10:39.030Z,8.78
2019-04-27T18:13:09.505Z,9.53
2019-04-27T18:15:45.804Z,8.77
2019-04-27T18:18:27.137Z,8.50
2019-04-27T18:20:58.574Z,9.20
2019-04-27T18:23:30.871Z,8.65
2019-04-27T18:26:19.791Z,9.10
2019-04-27T18:28:53.875Z,8.57
2019-04-27T18:31:24.574Z,8.43
2019-04-27T18:33:55.225Z,8.68
2019-04-27T18:36:25.831Z,8.97
2019-04-27T18:38:55.762Z,9.27
2019-04-27T18:41:26.006Z,9.27
2019-04-27T18:44:00.266Z,10.23
2019-04-27T18:46:30.165Z,8.63
2019-04-27T18:49:22.615Z,8.20
2019-04-27T18:52:35.676Z,8.90
2019-04-27T18:55:04.613Z,8.93
2019-04-27T18:57:35.092Z,9.10
2019-04-27T19:00:06.627Z,9.23
2019-04-27T19:02:37.039Z,9.17
2019-04-27T19:05:09.465Z,8.30
2019-04-27T19:07:40.056Z,9.40
2019-04-27T19:10:10.930Z,10.03
2019-04-27T19:12:40.980Z,9.27
2019-04-27T19:15:14.166Z,9.20
2019-04-27T19:17:45.668Z,9.13
2019-04-27T19:20:15.980Z,9.27
2019-04-27T19:22:48.795Z,8.47
2019-04-27T19:25:28.806Z,8.43
2019-04-27T19:28:20.582Z,8.60
2019-04-27T19:30:55.221Z,8.83
2019-04-27T19:33:24.881Z,9.53
2019-04-27T19:35:55.705Z,9.37
2019-04-27T19:38:28.866Z,9.40
2019-04-27T19:40:59.454Z,9.27
2019-04-27T19:43:29.418Z,9.57
2019-04-27T19:45:59.898Z,8.90
2019-04-27T19:48:29.761Z,8.77
2019-04-27T19:51:01.081Z,9.03
2019-04-27T19:53:31.541Z,9.20
2019-04-27T19:56:05.078Z,8.70
2019-04-27T19:58:39.493Z,9.20
2019-04-27T20:01:24.765Z,8.30
2019-04-27T20:04:00.593Z,9.10
2019-04-27T20:06:30.530Z,8.97
2019-04-27T20:09:05.057Z,8.67
2019-04-27T20:11:37.533Z,8.47
2019-04-27T20:14:10.910Z,8.33
2019-04-27T20:16:43.001Z,8.40
2019-04-27T20:19:13.395Z,8.20
2019-04-27T20:21:43.042Z,8.90
2019-04-27T20:24:12.853Z,8.17
2019-04-27T20:26:45.401Z,8.70
2019-04-27T20:29:15.773Z,9.40
2019-04-27T20:31:48.339Z,9.30
2019-04-27T20:34:18.738Z,8.63
2019-04-27T20:36:48.697Z,9.43
2019-04-27T20:39:20.662Z,10.37
2019-04-27T20:41:51.125Z,10.80
2019-04-27T20:44:22.557Z,10.20
2019-04-27T20:46:52.669Z,8.70
2019-04-27T20:49:22.560Z,8.80
2019-04-27T20:52:00.899Z,8.33
2019-04-27T20:54:32.592Z,8.90
2019-04-27T20:57:03.795Z,8.20
2019-04-27T20:59:34.329Z,8.93
2019-04-27T21:02:24.090Z,9.17
2019-04-27T21:05:03.227Z,8.80
2019-04-27T21:07:43.182Z,8.20
2019-04-27T21:10:14.648Z,8.60
2019-04-27T21:12:45.186Z,8.57
2019-04-27T21:15:15.566Z,8.63
2019-04-27T21:17:45.498Z,8.50
2019-04-27T21:20:16.220Z,8.23
2019-04-27T21:22:51.534Z,8.60
2019-04-27T21:25:23.125Z,8.70
2019-04-27T21:27:56.239Z,8.40
2019-04-27T21:30:26.678Z,8.60
2019-04-27T21:32:57.014Z,9.03
2019-04-27T21:35:29.571Z,9.13
2019-04-27T21:38:01.158Z,8.73
2019-04-27T21:40:31.673Z,8.77
2019-04-27T21:43:01.657Z,8.70
2019-04-27T21:45:32.797Z,8.63
2019-04-27T21:48:05.096Z,8.23
2019-04-27T21:50:35.481Z,8.20
2019-04-27T21:53:23.934Z,8.23
2019-04-27T21:56:13.897Z,8.43
2019-04-27T21:58:44.181Z,8.93
2019-04-27T22:01:22.381Z,7.97
2019-04-27T22:03:53.908Z,8.83
2019-04-27T22:06:24.886Z,8.57
2019-04-27T22:08:54.880Z,8.60
2019-04-27T22:11:25.707Z,9.53
2019-04-27T22:13:55.765Z,8.80
2019-04-27T22:16:25.621Z,9.57
2019-04-27T22:18:55.521Z,8.80
2019-04-27T22:21:26.387Z,8.60
2019-04-27T22:24:23.889Z,8.70
2019-04-27T22:26:55.777Z,9.17
2019-04-27T22:29:27.149Z,8.57
2019-04-27T22:31:57.421Z,9.07
2019-04-27T22:34:27.771Z,8.40
2019-04-27T22:37:00.979Z,8.73
2019-04-27T22:39:47.462Z,9.03
2019-04-27T22:42:44.893Z,8.87
2019-04-27T22:45:24.773Z,9.13
2019-04-27T22:47:57.181Z,8.97
2019-04-27T22:50:27.332Z,8.87
2019-04-27T22:53:08.481Z,8.33
2019-04-27T22:55:41.980Z,9.03
2019-04-27T22:58:19.609Z,9.00
2019-04-27T23:01:05.045Z,8.40
2019-04-27T23:03:38.673Z,8.80
2019-04-27T23:06:09.167Z,9.23
2019-04-27T23:08:41.501Z,9.20
2019-04-27T23:11:12.017Z,8.73
2019-04-27T23:13:43.913Z,9.47
2019-04-27T23:16:17.873Z,9.20
2019-04-27T23:18:49.306Z,9.20
2019-04-27T23:21:20.788Z,9.60
2019-04-27T23:24:01.906Z,9.50
2019-04-27T23:26:32.993Z,8.90
2019-04-27T23:29:12.966Z,8.90
2019-04-27T23:31:47.452Z,9.60
2019-04-27T23:34:17.946Z,9.37
2019-04-27T23:36:48.436Z,9.73
2019-04-27T23:39:18.757Z,9.60
2019-04-27T23:41:50.793Z,10.53
2019-04-27T23:44:21.090Z,9.97
2019-04-27T23:46:51.585Z,9.77
2019-04-27T23:49:22.519Z,9.80
2019-04-27T23:52:06.164Z,10.37
2019-04-27T23:54:36.789Z,10.43
2019-04-27T23:57:07.765Z,10.30
2019-04-27T23:59:39.209Z,9.63
